sensor_id;sensor_type;location;lat;lon;timestamp;pressure;altitude;pressure_sealevel;temperature;humidity
60267;BME280;46125;61.360;-149.532;2023-08-01T00:01:01;100080.32;;;25.70;44.82
60267;BME280;46125;61.360;-149.532;2023-08-01T00:03:30;100080.99;;;25.11;45.24
60267;BME280;46125;61.360;-149.532;2023-08-01T00:05:58;100078.15;;;25.64;45.42
60267;BME280;46125;61.360;-149.532;2023-08-01T00:08:27;100082.37;;;24.18;48.79
60267;BME280;46125;61.360;-149.532;2023-08-01T00:10:55;100083.43;;;24.47;48.04
60267;BME280;46125;61.360;-149.532;2023-08-01T00:13:23;100081.22;;;22.73;51.67
60267;BME280;46125;61.360;-149.532;2023-08-01T00:15:52;100081.21;;;22.69;51.68
60267;BME280;46125;61.360;-149.532;2023-08-01T00:18:20;100081.54;;;23.26;47.80
60267;BME280;46125;61.360;-149.532;2023-08-01T00:20:49;100078.14;;;23.29;45.81
60267;BME280;46125;61.360;-149.532;2023-08-01T00:23:20;100079.93;;;23.84;51.39
60267;BME280;46125;61.360;-149.532;2023-08-01T00:25:48;100077.61;;;23.67;48.30
60267;BME280;46125;61.360;-149.532;2023-08-01T00:28:17;100073.16;;;22.42;47.94
60267;BME280;46125;61.360;-149.532;2023-08-01T00:30:45;100071.91;;;21.89;47.64
60267;BME280;46125;61.360;-149.532;2023-08-01T00:33:13;100071.88;;;23.34;47.13
60267;BME280;46125;61.360;-149.532;2023-08-01T00:35:42;100073.57;;;23.15;49.56
60267;BME280;46125;61.360;-149.532;2023-08-01T00:38:10;100068.48;;;22.75;49.77
60267;BME280;46125;61.360;-149.532;2023-08-01T00:40:39;100069.80;;;23.22;49.00
60267;BME280;46125;61.360;-149.532;2023-08-01T00:43:07;100069.76;;;24.41;46.99
60267;BME280;46125;61.360;-149.532;2023-08-01T00:45:36;100071.00;;;23.19;45.69
60267;BME280;46125;61.360;-149.532;2023-08-01T00:48:09;100067.50;;;22.56;46.67
60267;BME280;46125;61.360;-149.532;2023-08-01T00:50:38;100068.35;;;23.81;46.15
60267;BME280;46125;61.360;-149.532;2023-08-01T00:53:07;100070.95;;;24.06;44.16
60267;BME280;46125;61.360;-149.532;2023-08-01T00:55:37;100072.08;;;24.17;46.44
60267;BME280;46125;61.360;-149.532;2023-08-01T00:58:06;100072.49;;;23.95;48.76
60267;BME280;46125;61.360;-149.532;2023-08-01T01:00:34;100073.78;;;24.23;48.92
60267;BME280;46125;61.360;-149.532;2023-08-01T01:03:03;100074.57;;;24.15;45.94
60267;BME280;46125;61.360;-149.532;2023-08-01T01:05:35;100074.69;;;24.49;45.21
60267;BME280;46125;61.360;-149.532;2023-08-01T01:08:05;100076.61;;;24.78;43.01
60267;BME280;46125;61.360;-149.532;2023-08-01T01:10:33;100077.35;;;24.18;44.27
60267;BME280;46125;61.360;-149.532;2023-08-01T01:13:01;100073.76;;;24.15;46.92
60267;BME280;46125;61.360;-149.532;2023-08-01T01:15:30;100073.77;;;24.79;43.00
60267;BME280;46125;61.360;-149.532;2023-08-01T01:17:58;100072.37;;;22.48;49.63
60267;BME280;46125;61.360;-149.532;2023-08-01T01:20:29;100074.12;;;23.08;46.58
60267;BME280;46125;61.360;-149.532;2023-08-01T01:22:58;100070.16;;;23.87;45.84
60267;BME280;46125;61.360;-149.532;2023-08-01T01:25:27;100071.70;;;23.07;45.74
60267;BME280;46125;61.360;-149.532;2023-08-01T01:28:04;100067.90;;;23.80;45.75
60267;BME280;46125;61.360;-149.532;2023-08-01T01:30:34;100071.52;;;23.13;48.94
60267;BME280;46125;61.360;-149.532;2023-08-01T01:33:03;100068.52;;;22.76;46.49
60267;BME280;46125;61.360;-149.532;2023-08-01T01:35:34;100070.42;;;23.24;47.46
60267;BME280;46125;61.360;-149.532;2023-08-01T01:38:03;100069.93;;;24.06;41.34
60267;BME280;46125;61.360;-149.532;2023-08-01T01:40:32;100065.19;;;22.48;45.40
60267;BME280;46125;61.360;-149.532;2023-08-01T01:43:01;100062.91;;;22.99;48.94
60267;BME280;46125;61.360;-149.532;2023-08-01T01:45:29;100069.32;;;23.64;47.14
60267;BME280;46125;61.360;-149.532;2023-08-01T01:47:58;100066.46;;;21.85;49.55
60267;BME280;46125;61.360;-149.532;2023-08-01T01:50:26;100068.54;;;24.05;46.21
60267;BME280;46125;61.360;-149.532;2023-08-01T01:52:55;100066.29;;;23.72;46.12
60267;BME280;46125;61.360;-149.532;2023-08-01T01:55:23;100065.49;;;23.81;48.06
60267;BME280;46125;61.360;-149.532;2023-08-01T01:57:53;100062.68;;;23.06;47.70
60267;BME280;46125;61.360;-149.532;2023-08-01T02:00:21;100060.59;;;22.38;42.62
60267;BME280;46125;61.360;-149.532;2023-08-01T02:02:50;100064.99;;;23.87;45.94
60267;BME280;46125;61.360;-149.532;2023-08-01T02:05:18;100060.32;;;24.07;48.00
60267;BME280;46125;61.360;-149.532;2023-08-01T02:07:46;100058.37;;;21.80;50.53
60267;BME280;46125;61.360;-149.532;2023-08-01T02:10:15;100052.55;;;22.64;47.12
60267;BME280;46125;61.360;-149.532;2023-08-01T02:12:43;100051.61;;;22.80;44.71
60267;BME280;46125;61.360;-149.532;2023-08-01T02:15:12;100051.08;;;23.91;41.61
60267;BME280;46125;61.360;-149.532;2023-08-01T02:17:40;100052.59;;;23.66;47.89
60267;BME280;46125;61.360;-149.532;2023-08-01T02:20:14;100052.99;;;23.85;50.82
60267;BME280;46125;61.360;-149.532;2023-08-01T02:22:42;100048.18;;;22.48;46.89
60267;BME280;46125;61.360;-149.532;2023-08-01T02:25:11;100045.71;;;23.16;47.12
60267;BME280;46125;61.360;-149.532;2023-08-01T02:27:39;100048.19;;;22.85;48.15
60267;BME280;46125;61.360;-149.532;2023-08-01T02:30:09;100047.06;;;24.81;47.48
60267;BME280;46125;61.360;-149.532;2023-08-01T02:32:42;100048.71;;;23.57;44.89
60267;BME280;46125;61.360;-149.532;2023-08-01T02:35:12;100048.90;;;23.42;47.24
60267;BME280;46125;61.360;-149.532;2023-08-01T02:37:40;100043.95;;;24.02;43.72
60267;BME280;46125;61.360;-149.532;2023-08-01T02:40:10;100045.15;;;24.02;45.28
60267;BME280;46125;61.360;-149.532;2023-08-01T02:42:38;100043.94;;;23.94;44.53
60267;BME280;46125;61.360;-149.532;2023-08-01T02:45:07;100045.55;;;24.16;47.31
60267;BME280;46125;61.360;-149.532;2023-08-01T02:47:36;100043.36;;;23.34;47.86
60267;BME280;46125;61.360;-149.532;2023-08-01T02:50:05;100042.53;;;23.58;46.39
60267;BME280;46125;61.360;-149.532;2023-08-01T02:52:33;100042.64;;;22.91;48.51
60267;BME280;46125;61.360;-149.532;2023-08-01T02:55:01;100044.48;;;23.24;44.67
60267;BME280;46125;61.360;-149.532;2023-08-01T02:57:30;100042.08;;;23.79;46.71
60267;BME280;46125;61.360;-149.532;2023-08-01T02:59:59;100039.19;;;21.18;51.61
60267;BME280;46125;61.360;-149.532;2023-08-01T03:02:28;100039.11;;;22.98;51.55
60267;BME280;46125;61.360;-149.532;2023-08-01T03:04:57;100035.36;;;23.06;50.53
60267;BME280;46125;61.360;-149.532;2023-08-01T03:07:25;100032.32;;;22.99;50.49
60267;BME280;46125;61.360;-149.532;2023-08-01T03:09:53;100036.12;;;23.42;49.07
60267;BME280;46125;61.360;-149.532;2023-08-01T03:12:22;100030.66;;;22.24;49.13
60267;BME280;46125;61.360;-149.532;2023-08-01T03:14:50;100030.88;;;23.70;49.82
60267;BME280;46125;61.360;-149.532;2023-08-01T03:17:19;100032.45;;;23.84;48.89
60267;BME280;46125;61.360;-149.532;2023-08-01T03:19:48;100031.94;;;23.21;47.38
60267;BME280;46125;61.360;-149.532;2023-08-01T03:22:17;100029.49;;;23.25;49.75
60267;BME280;46125;61.360;-149.532;2023-08-01T03:24:45;100031.37;;;23.07;47.61
60267;BME280;46125;61.360;-149.532;2023-08-01T03:27:13;100030.03;;;23.90;47.44
60267;BME280;46125;61.360;-149.532;2023-08-01T03:29:42;100029.58;;;23.81;44.40
60267;BME280;46125;61.360;-149.532;2023-08-01T03:32:20;100031.68;;;22.30;51.45
60267;BME280;46125;61.360;-149.532;2023-08-01T03:34:49;100030.26;;;22.92;51.68
60267;BME280;46125;61.360;-149.532;2023-08-01T03:37:18;100035.03;;;22.16;51.92
60267;BME280;46125;61.360;-149.532;2023-08-01T03:39:49;100034.22;;;23.18;48.93
60267;BME280;46125;61.360;-149.532;2023-08-01T03:42:17;100033.91;;;23.03;49.68
60267;BME280;46125;61.360;-149.532;2023-08-01T03:44:45;100032.42;;;22.17;51.24
60267;BME280;46125;61.360;-149.532;2023-08-01T03:47:14;100035.07;;;22.64;50.70
60267;BME280;46125;61.360;-149.532;2023-08-01T03:49:42;100035.52;;;22.02;50.46
60267;BME280;46125;61.360;-149.532;2023-08-01T03:52:11;100039.15;;;23.09;50.28
60267;BME280;46125;61.360;-149.532;2023-08-01T03:54:40;100039.26;;;22.81;49.87
60267;BME280;46125;61.360;-149.532;2023-08-01T03:57:14;100043.05;;;22.36;51.49
60267;BME280;46125;61.360;-149.532;2023-08-01T03:59:42;100042.16;;;22.44;49.91
60267;BME280;46125;61.360;-149.532;2023-08-01T04:02:21;100044.68;;;22.37;51.11
60267;BME280;46125;61.360;-149.532;2023-08-01T04:04:49;100045.59;;;22.65;50.16
60267;BME280;46125;61.360;-149.532;2023-08-01T04:07:19;100041.51;;;22.59;49.93
60267;BME280;46125;61.360;-149.532;2023-08-01T04:09:47;100043.99;;;22.40;51.13
60267;BME280;46125;61.360;-149.532;2023-08-01T04:12:21;100045.13;;;23.18;50.99
60267;BME280;46125;61.360;-149.532;2023-08-01T04:15:00;100041.31;;;23.04;50.46
60267;BME280;46125;61.360;-149.532;2023-08-01T04:17:28;100044.44;;;23.25;50.38
60267;BME280;46125;61.360;-149.532;2023-08-01T04:19:57;100047.42;;;22.77;51.06
60267;BME280;46125;61.360;-149.532;2023-08-01T04:22:26;100042.43;;;22.71;52.55
60267;BME280;46125;61.360;-149.532;2023-08-01T04:25:00;100044.37;;;23.05;51.18
60267;BME280;46125;61.360;-149.532;2023-08-01T04:27:29;100045.53;;;23.18;50.92
60267;BME280;46125;61.360;-149.532;2023-08-01T04:29:57;100043.07;;;23.27;50.93
60267;BME280;46125;61.360;-149.532;2023-08-01T04:32:25;100046.97;;;22.96;50.63
60267;BME280;46125;61.360;-149.532;2023-08-01T04:34:54;100046.38;;;22.45;51.31
60267;BME280;46125;61.360;-149.532;2023-08-01T04:37:22;100048.05;;;22.15;52.09
60267;BME280;46125;61.360;-149.532;2023-08-01T04:39:50;100050.53;;;21.98;53.82
60267;BME280;46125;61.360;-149.532;2023-08-01T04:42:19;100050.28;;;21.92;53.77
60267;BME280;46125;61.360;-149.532;2023-08-01T04:44:47;100050.29;;;21.85;52.62
60267;BME280;46125;61.360;-149.532;2023-08-01T04:47:31;100057.59;;;22.01;52.77
60267;BME280;46125;61.360;-149.532;2023-08-01T04:50:09;100062.24;;;21.46;54.45
60267;BME280;46125;61.360;-149.532;2023-08-01T04:52:38;100060.76;;;21.71;53.41
60267;BME280;46125;61.360;-149.532;2023-08-01T04:55:07;100063.07;;;21.44;55.04
60267;BME280;46125;61.360;-149.532;2023-08-01T04:57:35;100061.19;;;21.22;55.17
60267;BME280;46125;61.360;-149.532;2023-08-01T05:00:10;100061.34;;;21.60;54.30
60267;BME280;46125;61.360;-149.532;2023-08-01T05:02:40;100063.82;;;21.97;53.33
60267;BME280;46125;61.360;-149.532;2023-08-01T05:05:09;100065.45;;;21.75;53.63
60267;BME280;46125;61.360;-149.532;2023-08-01T05:07:42;100064.85;;;20.88;55.20
60267;BME280;46125;61.360;-149.532;2023-08-01T05:10:11;100065.06;;;21.83;53.64
60267;BME280;46125;61.360;-149.532;2023-08-01T05:12:39;100066.51;;;21.52;54.30
60267;BME280;46125;61.360;-149.532;2023-08-01T05:15:08;100064.69;;;20.94;54.99
60267;BME280;46125;61.360;-149.532;2023-08-01T05:17:38;100068.14;;;21.33;54.39
60267;BME280;46125;61.360;-149.532;2023-08-01T05:20:08;100066.22;;;21.58;53.54
60267;BME280;46125;61.360;-149.532;2023-08-01T05:22:48;100066.33;;;21.16;53.71
60267;BME280;46125;61.360;-149.532;2023-08-01T05:25:17;100067.26;;;21.15;54.20
60267;BME280;46125;61.360;-149.532;2023-08-01T05:27:46;100069.68;;;20.23;56.86
60267;BME280;46125;61.360;-149.532;2023-08-01T05:30:15;100072.69;;;20.54;55.54
60267;BME280;46125;61.360;-149.532;2023-08-01T05:32:43;100070.76;;;20.97;54.75
60267;BME280;46125;61.360;-149.532;2023-08-01T05:35:18;100072.48;;;21.04;54.12
60267;BME280;46125;61.360;-149.532;2023-08-01T05:37:46;100073.26;;;20.92;54.13
60267;BME280;46125;61.360;-149.532;2023-08-01T05:40:14;100077.81;;;21.12;53.43
60267;BME280;46125;61.360;-149.532;2023-08-01T05:42:43;100078.38;;;20.59;53.47
60267;BME280;46125;61.360;-149.532;2023-08-01T05:45:12;100083.42;;;20.07;55.45
60267;BME280;46125;61.360;-149.532;2023-08-01T05:47:41;100082.69;;;20.66;54.26
60267;BME280;46125;61.360;-149.532;2023-08-01T05:50:10;100086.84;;;20.24;55.20
60267;BME280;46125;61.360;-149.532;2023-08-01T05:52:38;100084.54;;;20.67;54.27
60267;BME280;46125;61.360;-149.532;2023-08-01T05:55:07;100085.60;;;20.31;55.05
60267;BME280;46125;61.360;-149.532;2023-08-01T05:57:36;100085.93;;;20.60;54.28
60267;BME280;46125;61.360;-149.532;2023-08-01T06:00:07;100085.53;;;20.84;54.06
60267;BME280;46125;61.360;-149.532;2023-08-01T06:02:35;100086.75;;;20.70;53.85
60267;BME280;46125;61.360;-149.532;2023-08-01T06:05:05;100085.31;;;20.69;54.24
60267;BME280;46125;61.360;-149.532;2023-08-01T06:07:39;100090.95;;;20.45;55.83
60267;BME280;46125;61.360;-149.532;2023-08-01T06:10:08;100097.39;;;19.51;56.88
60267;BME280;46125;61.360;-149.532;2023-08-01T06:12:37;100096.74;;;19.70;56.87
60267;BME280;46125;61.360;-149.532;2023-08-01T06:15:06;100096.36;;;20.34;55.83
60267;BME280;46125;61.360;-149.532;2023-08-01T06:17:34;100098.12;;;19.74;55.80
60267;BME280;46125;61.360;-149.532;2023-08-01T06:20:08;100099.13;;;20.27;55.26
60267;BME280;46125;61.360;-149.532;2023-08-01T06:22:36;100101.05;;;20.15;55.42
60267;BME280;46125;61.360;-149.532;2023-08-01T06:25:06;100096.38;;;20.37;54.41
60267;BME280;46125;61.360;-149.532;2023-08-01T06:27:35;100101.89;;;20.26;54.27
60267;BME280;46125;61.360;-149.532;2023-08-01T06:30:04;100102.86;;;20.12;54.33
60267;BME280;46125;61.360;-149.532;2023-08-01T06:32:33;100104.90;;;20.19;53.49
60267;BME280;46125;61.360;-149.532;2023-08-01T06:35:01;100106.91;;;20.07;53.31
60267;BME280;46125;61.360;-149.532;2023-08-01T06:37:35;100107.69;;;19.78;53.62
60267;BME280;46125;61.360;-149.532;2023-08-01T06:40:04;100112.46;;;19.88;53.47
60267;BME280;46125;61.360;-149.532;2023-08-01T06:42:33;100118.20;;;19.90;53.82
60267;BME280;46125;61.360;-149.532;2023-08-01T06:45:01;100123.12;;;19.59;54.23
60267;BME280;46125;61.360;-149.532;2023-08-01T06:47:30;100123.03;;;19.46;54.98
60267;BME280;46125;61.360;-149.532;2023-08-01T06:50:03;100125.66;;;19.17;55.81
60267;BME280;46125;61.360;-149.532;2023-08-01T06:52:33;100125.14;;;19.26;55.68
60267;BME280;46125;61.360;-149.532;2023-08-01T06:55:01;100128.83;;;19.29;54.61
60267;BME280;46125;61.360;-149.532;2023-08-01T06:57:30;100124.39;;;18.83;55.47
60267;BME280;46125;61.360;-149.532;2023-08-01T06:59:58;100124.18;;;18.95;55.04
60267;BME280;46125;61.360;-149.532;2023-08-01T07:02:37;100123.29;;;19.06;54.79
60267;BME280;46125;61.360;-149.532;2023-08-01T07:05:07;100123.99;;;19.15;54.58
60267;BME280;46125;61.360;-149.532;2023-08-01T07:07:36;100122.68;;;19.03;54.73
60267;BME280;46125;61.360;-149.532;2023-08-01T07:10:05;100122.99;;;19.24;55.10
60267;BME280;46125;61.360;-149.532;2023-08-01T07:12:34;100126.43;;;19.00;54.82
60267;BME280;46125;61.360;-149.532;2023-08-01T07:15:03;100128.43;;;18.83;54.53
60267;BME280;46125;61.360;-149.532;2023-08-01T07:17:32;100130.76;;;19.05;54.41
60267;BME280;46125;61.360;-149.532;2023-08-01T07:20:01;100130.77;;;19.00;54.23
60267;BME280;46125;61.360;-149.532;2023-08-01T07:22:29;100130.34;;;18.83;54.24
60267;BME280;46125;61.360;-149.532;2023-08-01T07:24:58;100131.83;;;18.74;54.30
60267;BME280;46125;61.360;-149.532;2023-08-01T07:27:26;100135.07;;;18.43;55.15
60267;BME280;46125;61.360;-149.532;2023-08-01T07:29:54;100134.71;;;18.56;54.77
60267;BME280;46125;61.360;-149.532;2023-08-01T07:32:23;100136.96;;;18.78;54.82
60267;BME280;46125;61.360;-149.532;2023-08-01T07:34:51;100139.51;;;18.77;54.87
60267;BME280;46125;61.360;-149.532;2023-08-01T07:37:20;100143.17;;;18.53;54.89
60267;BME280;46125;61.360;-149.532;2023-08-01T07:39:50;100144.99;;;18.39;55.53
60267;BME280;46125;61.360;-149.532;2023-08-01T07:42:19;100146.31;;;18.39;55.44
60267;BME280;46125;61.360;-149.532;2023-08-01T07:44:47;100145.28;;;18.46;55.07
60267;BME280;46125;61.360;-149.532;2023-08-01T07:47:16;100147.50;;;18.50;55.00
60267;BME280;46125;61.360;-149.532;2023-08-01T07:49:44;100147.86;;;18.67;55.38
60267;BME280;46125;61.360;-149.532;2023-08-01T07:52:13;100149.14;;;18.43;55.29
60267;BME280;46125;61.360;-149.532;2023-08-01T07:54:41;100148.18;;;18.70;55.41
60267;BME280;46125;61.360;-149.532;2023-08-01T07:57:10;100147.87;;;18.35;55.66
60267;BME280;46125;61.360;-149.532;2023-08-01T07:59:38;100148.40;;;18.61;55.64
60267;BME280;46125;61.360;-149.532;2023-08-01T08:02:07;100149.04;;;18.69;55.24
60267;BME280;46125;61.360;-149.532;2023-08-01T08:04:35;100148.78;;;18.39;55.10
60267;BME280;46125;61.360;-149.532;2023-08-01T08:07:05;100150.67;;;18.14;56.65
60267;BME280;46125;61.360;-149.532;2023-08-01T08:09:34;100153.32;;;18.42;55.77
60267;BME280;46125;61.360;-149.532;2023-08-01T08:12:02;100152.94;;;18.21;57.04
60267;BME280;46125;61.360;-149.532;2023-08-01T08:14:31;100153.08;;;18.49;56.17
60267;BME280;46125;61.360;-149.532;2023-08-01T08:16:59;100152.41;;;18.32;55.78
60267;BME280;46125;61.360;-149.532;2023-08-01T08:19:28;100152.91;;;18.03;55.56
60267;BME280;46125;61.360;-149.532;2023-08-01T08:21:56;100153.19;;;18.28;55.34
60267;BME280;46125;61.360;-149.532;2023-08-01T08:24:25;100151.42;;;18.26;55.44
60267;BME280;46125;61.360;-149.532;2023-08-01T08:26:53;100150.51;;;18.34;55.77
60267;BME280;46125;61.360;-149.532;2023-08-01T08:29:22;100150.86;;;18.17;55.40
60267;BME280;46125;61.360;-149.532;2023-08-01T08:31:51;100152.95;;;18.39;55.39
60267;BME280;46125;61.360;-149.532;2023-08-01T08:34:19;100156.95;;;18.14;55.38
60267;BME280;46125;61.360;-149.532;2023-08-01T08:36:48;100152.78;;;18.35;55.40
60267;BME280;46125;61.360;-149.532;2023-08-01T08:39:17;100153.56;;;18.05;56.03
60267;BME280;46125;61.360;-149.532;2023-08-01T08:41:46;100154.94;;;17.50;57.55
60267;BME280;46125;61.360;-149.532;2023-08-01T08:44:16;100155.31;;;17.67;56.37
60267;BME280;46125;61.360;-149.532;2023-08-01T08:46:47;100162.17;;;18.01;56.34
60267;BME280;46125;61.360;-149.532;2023-08-01T08:49:18;100165.06;;;18.04;56.03
60267;BME280;46125;61.360;-149.532;2023-08-01T08:51:47;100161.65;;;18.04;55.96
60267;BME280;46125;61.360;-149.532;2023-08-01T08:54:17;100161.91;;;17.87;56.43
60267;BME280;46125;61.360;-149.532;2023-08-01T08:56:45;100168.70;;;17.95;56.29
60267;BME280;46125;61.360;-149.532;2023-08-01T08:59:14;100171.39;;;18.00;56.09
60267;BME280;46125;61.360;-149.532;2023-08-01T09:01:42;100173.58;;;18.06;56.34
60267;BME280;46125;61.360;-149.532;2023-08-01T09:04:11;100176.58;;;18.12;56.21
60267;BME280;46125;61.360;-149.532;2023-08-01T09:06:44;100176.38;;;18.10;56.36
60267;BME280;46125;61.360;-149.532;2023-08-01T09:09:15;100177.75;;;18.12;56.13
60267;BME280;46125;61.360;-149.532;2023-08-01T09:11:45;100175.62;;;18.04;56.17
60267;BME280;46125;61.360;-149.532;2023-08-01T09:14:14;100174.77;;;18.00;56.08
60267;BME280;46125;61.360;-149.532;2023-08-01T09:16:43;100174.15;;;17.97;56.07
60267;BME280;46125;61.360;-149.532;2023-08-01T09:19:17;100174.67;;;17.84;56.35
60267;BME280;46125;61.360;-149.532;2023-08-01T09:21:46;100175.80;;;17.86;56.12
60267;BME280;46125;61.360;-149.532;2023-08-01T09:24:16;100179.63;;;17.76;56.14
60267;BME280;46125;61.360;-149.532;2023-08-01T09:26:48;100180.30;;;17.73;56.23
60267;BME280;46125;61.360;-149.532;2023-08-01T09:29:17;100177.30;;;17.68;56.27
60267;BME280;46125;61.360;-149.532;2023-08-01T09:31:46;100180.26;;;17.58;56.81
60267;BME280;46125;61.360;-149.532;2023-08-01T09:34:23;100183.39;;;17.60;57.52
60267;BME280;46125;61.360;-149.532;2023-08-01T09:36:57;100190.68;;;17.50;57.73
60267;BME280;46125;61.360;-149.532;2023-08-01T09:39:26;100189.57;;;17.59;57.60
60267;BME280;46125;61.360;-149.532;2023-08-01T09:41:58;100186.86;;;17.56;57.48
60267;BME280;46125;61.360;-149.532;2023-08-01T09:44:28;100189.37;;;17.55;56.99
60267;BME280;46125;61.360;-149.532;2023-08-01T09:46:58;100190.80;;;17.53;56.68
60267;BME280;46125;61.360;-149.532;2023-08-01T09:49:28;100195.00;;;17.46;56.83
60267;BME280;46125;61.360;-149.532;2023-08-01T09:51:57;100196.52;;;17.38;57.13
60267;BME280;46125;61.360;-149.532;2023-08-01T09:54:26;100199.44;;;17.37;57.30
60267;BME280;46125;61.360;-149.532;2023-08-01T09:56:55;100204.10;;;16.50;60.38
60267;BME280;46125;61.360;-149.532;2023-08-01T09:59:24;100202.38;;;17.34;58.20
60267;BME280;46125;61.360;-149.532;2023-08-01T10:01:54;100205.06;;;17.30;57.43
60267;BME280;46125;61.360;-149.532;2023-08-01T10:04:25;100205.60;;;17.53;57.54
60267;BME280;46125;61.360;-149.532;2023-08-01T10:06:57;100207.70;;;17.34;57.06
60267;BME280;46125;61.360;-149.532;2023-08-01T10:09:27;100209.02;;;16.94;57.00
60267;BME280;46125;61.360;-149.532;2023-08-01T10:11:58;100214.28;;;16.72;58.62
60267;BME280;46125;61.360;-149.532;2023-08-01T10:14:27;100213.12;;;16.61;58.80
60267;BME280;46125;61.360;-149.532;2023-08-01T10:16:55;100211.09;;;16.30;60.40
60267;BME280;46125;61.360;-149.532;2023-08-01T10:19:24;100210.43;;;16.43;58.92
60267;BME280;46125;61.360;-149.532;2023-08-01T10:21:54;100211.76;;;16.54;59.58
60267;BME280;46125;61.360;-149.532;2023-08-01T10:24:23;100208.90;;;16.83;58.45
60267;BME280;46125;61.360;-149.532;2023-08-01T10:26:52;100208.86;;;16.75;57.93
60267;BME280;46125;61.360;-149.532;2023-08-01T10:29:20;100211.99;;;16.77;57.96
60267;BME280;46125;61.360;-149.532;2023-08-01T10:31:53;100210.96;;;17.10;57.77
60267;BME280;46125;61.360;-149.532;2023-08-01T10:34:22;100212.53;;;17.09;57.65
60267;BME280;46125;61.360;-149.532;2023-08-01T10:36:58;100213.84;;;16.90;57.62
60267;BME280;46125;61.360;-149.532;2023-08-01T10:39:28;100210.97;;;16.99;58.00
60267;BME280;46125;61.360;-149.532;2023-08-01T10:41:59;100212.93;;;16.83;57.81
60267;BME280;46125;61.360;-149.532;2023-08-01T10:44:28;100214.80;;;16.83;58.10
60267;BME280;46125;61.360;-149.532;2023-08-01T10:46:59;100215.88;;;16.78;59.27
60267;BME280;46125;61.360;-149.532;2023-08-01T10:49:38;100215.25;;;16.85;58.35
60267;BME280;46125;61.360;-149.532;2023-08-01T10:52:17;100216.23;;;16.75;58.02
60267;BME280;46125;61.360;-149.532;2023-08-01T10:54:45;100210.42;;;16.83;57.94
60267;BME280;46125;61.360;-149.532;2023-08-01T10:57:17;100208.54;;;17.14;57.94
60267;BME280;46125;61.360;-149.532;2023-08-01T10:59:46;100205.19;;;17.17;57.88
60267;BME280;46125;61.360;-149.532;2023-08-01T11:02:20;100207.58;;;16.87;58.19
60267;BME280;46125;61.360;-149.532;2023-08-01T11:04:57;100210.45;;;16.72;58.74
60267;BME280;46125;61.360;-149.532;2023-08-01T11:07:26;100215.45;;;17.03;58.70
60267;BME280;46125;61.360;-149.532;2023-08-01T11:10:05;100215.98;;;17.08;58.88
60267;BME280;46125;61.360;-149.532;2023-08-01T11:12:35;100215.78;;;16.75;59.79
60267;BME280;46125;61.360;-149.532;2023-08-01T11:15:06;100211.97;;;17.30;59.08
60267;BME280;46125;61.360;-149.532;2023-08-01T11:17:37;100214.63;;;17.03;59.68
60267;BME280;46125;61.360;-149.532;2023-08-01T11:20:07;100213.48;;;16.88;59.61
60267;BME280;46125;61.360;-149.532;2023-08-01T11:22:36;100214.85;;;17.06;59.05
60267;BME280;46125;61.360;-149.532;2023-08-01T11:25:06;100211.36;;;16.87;58.91
60267;BME280;46125;61.360;-149.532;2023-08-01T11:27:34;100212.75;;;17.13;58.89
60267;BME280;46125;61.360;-149.532;2023-08-01T11:30:03;100211.57;;;17.21;58.60
60267;BME280;46125;61.360;-149.532;2023-08-01T11:32:36;100212.27;;;17.32;58.28
60267;BME280;46125;61.360;-149.532;2023-08-01T11:35:06;100211.15;;;17.55;58.23
60267;BME280;46125;61.360;-149.532;2023-08-01T11:37:34;100210.57;;;16.93;59.04
60267;BME280;46125;61.360;-149.532;2023-08-01T11:40:03;100210.58;;;16.73;59.38
60267;BME280;46125;61.360;-149.532;2023-08-01T11:42:32;100209.20;;;17.14;58.59
60267;BME280;46125;61.360;-149.532;2023-08-01T11:45:17;100208.68;;;17.19;58.26
60267;BME280;46125;61.360;-149.532;2023-08-01T11:47:47;100207.43;;;16.80;58.54
60267;BME280;46125;61.360;-149.532;2023-08-01T11:50:20;100206.83;;;16.85;58.68
60267;BME280;46125;61.360;-149.532;2023-08-01T11:52:48;100207.49;;;16.43;58.17
60267;BME280;46125;61.360;-149.532;2023-08-01T11:55:22;100202.61;;;16.72;57.71
60267;BME280;46125;61.360;-149.532;2023-08-01T11:57:54;100202.66;;;16.66;57.98
60267;BME280;46125;61.360;-149.532;2023-08-01T12:00:24;100202.11;;;16.68;57.19
60267;BME280;46125;61.360;-149.532;2023-08-01T12:03:04;100202.56;;;17.07;57.59
60267;BME280;46125;61.360;-149.532;2023-08-01T12:05:33;100200.71;;;17.45;57.03
60267;BME280;46125;61.360;-149.532;2023-08-01T12:08:17;100198.26;;;16.99;57.43
60267;BME280;46125;61.360;-149.532;2023-08-01T12:10:46;100193.65;;;17.15;57.20
60267;BME280;46125;61.360;-149.532;2023-08-01T12:13:22;100194.73;;;17.14;56.29
60267;BME280;46125;61.360;-149.532;2023-08-01T12:15:52;100190.52;;;17.55;55.92
60267;BME280;46125;61.360;-149.532;2023-08-01T12:18:22;100192.60;;;17.92;55.44
60267;BME280;46125;61.360;-149.532;2023-08-01T12:20:51;100197.74;;;17.34;54.42
60267;BME280;46125;61.360;-149.532;2023-08-01T12:23:20;100194.80;;;17.67;53.88
60267;BME280;46125;61.360;-149.532;2023-08-01T12:25:48;100199.36;;;16.58;54.92
60267;BME280;46125;61.360;-149.532;2023-08-01T12:28:17;100195.03;;;17.67;54.17
60267;BME280;46125;61.360;-149.532;2023-08-01T12:30:45;100196.49;;;17.66;54.13
60267;BME280;46125;61.360;-149.532;2023-08-01T12:33:14;100199.31;;;17.33;54.24